sensor_id;sensor_type;location;lat;lon;timestamp;temperature;humidity
38726;DHT22;24474;48.906;8.808;2022-07-29T00:00:51;20.80;99.90
38726;DHT22;24474;48.906;8.808;2022-07-29T00:03:19;20.80;99.90
38726;DHT22;24474;48.906;8.808;2022-07-29T00:05:48;20.80;99.90
38726;DHT22;24474;48.906;8.808;2022-07-29T00:08:15;20.80;99.90
38726;DHT22;24474;48.906;8.808;2022-07-29T00:10:41;20.70;99.90
38726;DHT22;24474;48.906;8.808;2022-07-29T00:13:08;20.70;99.90
38726;DHT22;24474;48.906;8.808;2022-07-29T00:15:34;20.60;99.90
38726;DHT22;24474;48.906;8.808;2022-07-29T00:18:00;20.60;99.90
38726;DHT22;24474;48.906;8.808;2022-07-29T00:20:27;20.60;99.90
38726;DHT22;24474;48.906;8.808;2022-07-29T00:22:53;20.60;99.90
38726;DHT22;24474;48.906;8.808;2022-07-29T00:25:20;20.60;99.90
38726;DHT22;24474;48.906;8.808;2022-07-29T00:27:45;20.60;99.90
38726;DHT22;24474;48.906;8.808;2022-07-29T00:30:12;20.60;99.90
38726;DHT22;24474;48.906;8.808;2022-07-29T00:32:38;20.50;99.90
38726;DHT22;24474;48.906;8.808;2022-07-29T00:35:08;20.50;99.90
38726;DHT22;24474;48.906;8.808;2022-07-29T00:37:53;20.50;99.90
38726;DHT22;24474;48.906;8.808;2022-07-29T00:40:20;20.40;99.90
38726;DHT22;24474;48.906;8.808;2022-07-29T00:42:48;20.50;99.90
38726;DHT22;24474;48.906;8.808;2022-07-29T00:45:18;20.50;99.90
38726;DHT22;24474;48.906;8.808;2022-07-29T00:47:53;20.50;99.90
38726;DHT22;24474;48.906;8.808;2022-07-29T00:50:20;20.40;99.90
38726;DHT22;24474;48.906;8.808;2022-07-29T00:52:46;20.40;99.90
38726;DHT22;24474;48.906;8.808;2022-07-29T00:55:15;20.40;99.90
38726;DHT22;24474;48.906;8.808;2022-07-29T00:57:42;20.40;99.90
38726;DHT22;24474;48.906;8.808;2022-07-29T01:00:12;20.40;99.90
38726;DHT22;24474;48.906;8.808;2022-07-29T01:02:39;20.40;99.90
38726;DHT22;24474;48.906;8.808;2022-07-29T01:05:08;20.40;99.90
38726;DHT22;24474;48.906;8.808;2022-07-29T01:07:37;20.40;99.90
38726;DHT22;24474;48.906;8.808;2022-07-29T01:10:04;20.40;99.90
38726;DHT22;24474;48.906;8.808;2022-07-29T01:12:32;20.30;99.90
38726;DHT22;24474;48.906;8.808;2022-07-29T01:15:01;20.30;99.90
38726;DHT22;24474;48.906;8.808;2022-07-29T01:20:53;20.30;99.90
38726;DHT22;24474;48.906;8.808;2022-07-29T01:26:59;20.30;99.90
38726;DHT22;24474;48.906;8.808;2022-07-29T01:29:48;20.30;99.90
38726;DHT22;24474;48.906;8.808;2022-07-29T01:32:19;20.30;99.90
38726;DHT22;24474;48.906;8.808;2022-07-29T01:35:03;20.30;99.90
38726;DHT22;24474;48.906;8.808;2022-07-29T01:40:19;20.30;99.90
38726;DHT22;24474;48.906;8.808;2022-07-29T01:42:54;20.30;99.90
38726;DHT22;24474;48.906;8.808;2022-07-29T01:48:06;20.30;99.90
38726;DHT22;24474;48.906;8.808;2022-07-29T01:50:46;20.20;99.90
38726;DHT22;24474;48.906;8.808;2022-07-29T01:53:12;20.20;99.90
38726;DHT22;24474;48.906;8.808;2022-07-29T01:55:44;20.20;99.90
38726;DHT22;24474;48.906;8.808;2022-07-29T01:58:12;20.20;99.90
38726;DHT22;24474;48.906;8.808;2022-07-29T02:00:39;20.20;99.90
38726;DHT22;24474;48.906;8.808;2022-07-29T02:03:09;20.20;99.90
38726;DHT22;24474;48.906;8.808;2022-07-29T02:05:40;20.20;99.90
38726;DHT22;24474;48.906;8.808;2022-07-29T02:08:06;20.20;99.90
38726;DHT22;24474;48.906;8.808;2022-07-29T02:10:35;20.20;99.90
38726;DHT22;24474;48.906;8.808;2022-07-29T02:13:05;20.20;99.90
38726;DHT22;24474;48.906;8.808;2022-07-29T02:15:38;20.20;99.90
38726;DHT22;24474;48.906;8.808;2022-07-29T02:18:18;20.20;99.90
38726;DHT22;24474;48.906;8.808;2022-07-29T02:20:49;20.10;99.90
38726;DHT22;24474;48.906;8.808;2022-07-29T02:23:19;20.20;99.90
38726;DHT22;24474;48.906;8.808;2022-07-29T02:25:48;20.10;99.90
38726;DHT22;24474;48.906;8.808;2022-07-29T02:28:16;20.10;99.90
38726;DHT22;24474;48.906;8.808;2022-07-29T02:30:43;20.10;99.90
38726;DHT22;24474;48.906;8.808;2022-07-29T02:33:13;20.10;99.90
38726;DHT22;24474;48.906;8.808;2022-07-29T02:35:41;20.00;99.90
38726;DHT22;24474;48.906;8.808;2022-07-29T02:38:12;20.00;99.90
38726;DHT22;24474;48.906;8.808;2022-07-29T02:40:59;19.90;99.90
38726;DHT22;24474;48.906;8.808;2022-07-29T02:43:25;20.00;99.90
38726;DHT22;24474;48.906;8.808;2022-07-29T02:45:53;20.00;99.90
38726;DHT22;24474;48.906;8.808;2022-07-29T02:48:27;19.90;99.90
38726;DHT22;24474;48.906;8.808;2022-07-29T02:51:05;19.90;99.90
38726;DHT22;24474;48.906;8.808;2022-07-29T02:53:33;19.90;99.90
38726;DHT22;24474;48.906;8.808;2022-07-29T02:56:14;19.90;99.90
38726;DHT22;24474;48.906;8.808;2022-07-29T02:58:49;19.90;99.90
38726;DHT22;24474;48.906;8.808;2022-07-29T03:01:22;19.80;99.90
38726;DHT22;24474;48.906;8.808;2022-07-29T03:03:52;19.80;99.90
38726;DHT22;24474;48.906;8.808;2022-07-29T03:06:21;19.80;99.90
38726;DHT22;24474;48.906;8.808;2022-07-29T03:08:47;19.80;99.90
38726;DHT22;24474;48.906;8.808;2022-07-29T03:11:14;19.80;99.90
38726;DHT22;24474;48.906;8.808;2022-07-29T03:13:42;19.80;99.90
38726;DHT22;24474;48.906;8.808;2022-07-29T03:16:09;19.80;99.90
38726;DHT22;24474;48.906;8.808;2022-07-29T03:18:36;19.70;99.90
38726;DHT22;24474;48.906;8.808;2022-07-29T03:21:03;19.70;99.90
38726;DHT22;24474;48.906;8.808;2022-07-29T03:23:29;19.70;99.90
38726;DHT22;24474;48.906;8.808;2022-07-29T03:25:56;19.60;99.90
38726;DHT22;24474;48.906;8.808;2022-07-29T03:28:22;19.60;99.90
38726;DHT22;24474;48.906;8.808;2022-07-29T03:30:48;19.60;99.90
38726;DHT22;24474;48.906;8.808;2022-07-29T03:33:13;19.60;99.90
38726;DHT22;24474;48.906;8.808;2022-07-29T03:35:39;19.60;99.90
38726;DHT22;24474;48.906;8.808;2022-07-29T03:38:06;19.60;99.90
38726;DHT22;24474;48.906;8.808;2022-07-29T03:40:48;19.60;99.90
38726;DHT22;24474;48.906;8.808;2022-07-29T03:43:17;19.50;99.90
38726;DHT22;24474;48.906;8.808;2022-07-29T03:45:47;19.60;99.90
38726;DHT22;24474;48.906;8.808;2022-07-29T03:48:17;19.60;99.90
38726;DHT22;24474;48.906;8.808;2022-07-29T03:50:45;19.50;99.90
38726;DHT22;24474;48.906;8.808;2022-07-29T03:53:11;19.60;99.90
38726;DHT22;24474;48.906;8.808;2022-07-29T03:55:41;19.60;99.90
38726;DHT22;24474;48.906;8.808;2022-07-29T03:58:09;19.60;99.90
38726;DHT22;24474;48.906;8.808;2022-07-29T04:00:36;19.50;99.90
38726;DHT22;24474;48.906;8.808;2022-07-29T04:03:04;19.60;99.90
38726;DHT22;24474;48.906;8.808;2022-07-29T04:05:29;19.60;99.90
38726;DHT22;24474;48.906;8.808;2022-07-29T04:07:55;19.60;99.90
38726;DHT22;24474;48.906;8.808;2022-07-29T04:10:21;19.60;99.90
38726;DHT22;24474;48.906;8.808;2022-07-29T04:12:49;19.70;99.90
38726;DHT22;24474;48.906;8.808;2022-07-29T04:15:15;19.70;99.90
38726;DHT22;24474;48.906;8.808;2022-07-29T04:17:40;19.70;99.90
38726;DHT22;24474;48.906;8.808;2022-07-29T04:20:07;19.70;99.90
38726;DHT22;24474;48.906;8.808;2022-07-29T04:22:32;19.70;99.90
38726;DHT22;24474;48.906;8.808;2022-07-29T04:24:58;19.70;99.90
38726;DHT22;24474;48.906;8.808;2022-07-29T04:27:25;19.70;99.90
38726;DHT22;24474;48.906;8.808;2022-07-29T04:29:50;19.70;99.90
38726;DHT22;24474;48.906;8.808;2022-07-29T04:32:16;19.60;99.90
38726;DHT22;24474;48.906;8.808;2022-07-29T04:34:42;19.70;99.90
38726;DHT22;24474;48.906;8.808;2022-07-29T04:37:08;19.60;99.90
38726;DHT22;24474;48.906;8.808;2022-07-29T04:39:33;19.60;99.90
38726;DHT22;24474;48.906;8.808;2022-07-29T04:41:59;19.60;99.90
38726;DHT22;24474;48.906;8.808;2022-07-29T04:44:25;19.60;99.90
38726;DHT22;24474;48.906;8.808;2022-07-29T04:46:51;19.60;99.90
38726;DHT22;24474;48.906;8.808;2022-07-29T04:49:16;19.60;99.90
38726;DHT22;24474;48.906;8.808;2022-07-29T04:51:43;19.60;99.90
38726;DHT22;24474;48.906;8.808;2022-07-29T04:54:09;19.60;99.90
38726;DHT22;24474;48.906;8.808;2022-07-29T04:56:39;19.70;99.90
38726;DHT22;24474;48.906;8.808;2022-07-29T04:59:05;19.70;99.90
38726;DHT22;24474;48.906;8.808;2022-07-29T05:01:31;19.70;99.90
38726;DHT22;24474;48.906;8.808;2022-07-29T05:03:58;19.70;99.90
38726;DHT22;24474;48.906;8.808;2022-07-29T05:06:23;19.70;99.90
38726;DHT22;24474;48.906;8.808;2022-07-29T05:08:49;19.70;99.90
38726;DHT22;24474;48.906;8.808;2022-07-29T05:11:15;19.70;99.90
38726;DHT22;24474;48.906;8.808;2022-07-29T05:13:40;19.80;99.90
38726;DHT22;24474;48.906;8.808;2022-07-29T05:16:07;19.90;99.90
38726;DHT22;24474;48.906;8.808;2022-07-29T05:18:33;19.90;99.90
38726;DHT22;24474;48.906;8.808;2022-07-29T05:21:00;19.90;99.90
38726;DHT22;24474;48.906;8.808;2022-07-29T05:23:26;19.90;99.90
38726;DHT22;24474;48.906;8.808;2022-07-29T05:25:51;19.90;99.90
38726;DHT22;24474;48.906;8.808;2022-07-29T05:28:17;19.90;99.90
38726;DHT22;24474;48.906;8.808;2022-07-29T05:30:43;19.90;99.90
38726;DHT22;24474;48.906;8.808;2022-07-29T05:33:10;20.00;99.90
38726;DHT22;24474;48.906;8.808;2022-07-29T05:35:36;20.10;99.90
38726;DHT22;24474;48.906;8.808;2022-07-29T05:38:03;20.10;99.90
38726;DHT22;24474;48.906;8.808;2022-07-29T05:40:28;20.20;99.90
38726;DHT22;24474;48.906;8.808;2022-07-29T05:42:54;20.20;99.90
38726;DHT22;24474;48.906;8.808;2022-07-29T05:45:20;20.30;99.90
38726;DHT22;24474;48.906;8.808;2022-07-29T05:47:46;20.30;99.90
38726;DHT22;24474;48.906;8.808;2022-07-29T05:50:12;20.30;99.90
38726;DHT22;24474;48.906;8.808;2022-07-29T05:52:38;20.60;99.90
38726;DHT22;24474;48.906;8.808;2022-07-29T05:55:04;20.60;99.90
38726;DHT22;24474;48.906;8.808;2022-07-29T05:57:31;20.70;99.90
38726;DHT22;24474;48.906;8.808;2022-07-29T05:59:57;21.00;99.90
38726;DHT22;24474;48.906;8.808;2022-07-29T06:02:23;21.20;99.90
38726;DHT22;24474;48.906;8.808;2022-07-29T06:04:49;21.20;99.90
38726;DHT22;24474;48.906;8.808;2022-07-29T06:07:15;21.10;99.90
38726;DHT22;24474;48.906;8.808;2022-07-29T06:09:41;21.10;99.90
38726;DHT22;24474;48.906;8.808;2022-07-29T06:12:07;21.00;99.90
38726;DHT22;24474;48.906;8.808;2022-07-29T06:14:33;20.90;99.90
38726;DHT22;24474;48.906;8.808;2022-07-29T06:16:59;20.80;99.90
38726;DHT22;24474;48.906;8.808;2022-07-29T06:19:24;20.70;99.90
38726;DHT22;24474;48.906;8.808;2022-07-29T06:21:51;20.70;99.90
38726;DHT22;24474;48.906;8.808;2022-07-29T06:24:16;20.70;99.90
38726;DHT22;24474;48.906;8.808;2022-07-29T06:26:42;20.80;99.90
38726;DHT22;24474;48.906;8.808;2022-07-29T06:29:09;20.90;99.90
38726;DHT22;24474;48.906;8.808;2022-07-29T06:31:38;20.80;99.90
38726;DHT22;24474;48.906;8.808;2022-07-29T06:34:04;20.80;99.90
38726;DHT22;24474;48.906;8.808;2022-07-29T06:36:29;20.90;99.90
38726;DHT22;24474;48.906;8.808;2022-07-29T06:38:55;20.90;99.90
38726;DHT22;24474;48.906;8.808;2022-07-29T06:41:21;20.90;99.90
38726;DHT22;24474;48.906;8.808;2022-07-29T06:43:48;21.00;99.90
38726;DHT22;24474;48.906;8.808;2022-07-29T06:46:17;21.00;99.90
38726;DHT22;24474;48.906;8.808;2022-07-29T06:48:44;21.00;99.90
38726;DHT22;24474;48.906;8.808;2022-07-29T06:51:10;21.00;99.90
38726;DHT22;24474;48.906;8.808;2022-07-29T06:53:39;21.10;99.90
38726;DHT22;24474;48.906;8.808;2022-07-29T06:56:06;21.00;99.90
38726;DHT22;24474;48.906;8.808;2022-07-29T06:58:35;21.00;99.90
38726;DHT22;24474;48.906;8.808;2022-07-29T07:01:02;21.10;99.90
38726;DHT22;24474;48.906;8.808;2022-07-29T07:03:28;21.10;99.90
38726;DHT22;24474;48.906;8.808;2022-07-29T07:05:54;21.10;99.90
38726;DHT22;24474;48.906;8.808;2022-07-29T07:08:20;21.10;99.90
38726;DHT22;24474;48.906;8.808;2022-07-29T07:10:47;21.10;99.90
38726;DHT22;24474;48.906;8.808;2022-07-29T07:13:13;21.20;99.90
38726;DHT22;24474;48.906;8.808;2022-07-29T07:15:40;21.30;99.90
38726;DHT22;24474;48.906;8.808;2022-07-29T07:18:06;21.30;99.90
38726;DHT22;24474;48.906;8.808;2022-07-29T07:20:33;21.40;99.90
38726;DHT22;24474;48.906;8.808;2022-07-29T07:22:59;21.40;99.90
38726;DHT22;24474;48.906;8.808;2022-07-29T07:25:24;21.40;99.90
38726;DHT22;24474;48.906;8.808;2022-07-29T07:27:50;21.40;99.90
38726;DHT22;24474;48.906;8.808;2022-07-29T07:30:16;21.50;99.90
38726;DHT22;24474;48.906;8.808;2022-07-29T07:32:42;21.60;99.90
38726;DHT22;24474;48.906;8.808;2022-07-29T07:35:08;21.60;99.90
38726;DHT22;24474;48.906;8.808;2022-07-29T07:37:35;21.60;99.90
38726;DHT22;24474;48.906;8.808;2022-07-29T07:40:02;21.60;99.90
38726;DHT22;24474;48.906;8.808;2022-07-29T07:42:28;21.60;99.90
38726;DHT22;24474;48.906;8.808;2022-07-29T07:44:53;21.60;99.90
38726;DHT22;24474;48.906;8.808;2022-07-29T07:47:19;21.70;99.90
38726;DHT22;24474;48.906;8.808;2022-07-29T07:49:46;21.80;99.90
38726;DHT22;24474;48.906;8.808;2022-07-29T07:52:13;22.00;99.90
38726;DHT22;24474;48.906;8.808;2022-07-29T07:54:39;22.00;99.90
38726;DHT22;24474;48.906;8.808;2022-07-29T07:57:04;22.10;99.90
38726;DHT22;24474;48.906;8.808;2022-07-29T07:59:30;22.10;99.90
38726;DHT22;24474;48.906;8.808;2022-07-29T08:01:56;22.10;99.90
38726;DHT22;24474;48.906;8.808;2022-07-29T08:04:22;22.20;99.90
38726;DHT22;24474;48.906;8.808;2022-07-29T08:06:47;22.30;99.90
38726;DHT22;24474;48.906;8.808;2022-07-29T08:09:15;22.30;99.90
38726;DHT22;24474;48.906;8.808;2022-07-29T08:11:40;22.30;99.90
38726;DHT22;24474;48.906;8.808;2022-07-29T08:14:06;22.30;99.90
38726;DHT22;24474;48.906;8.808;2022-07-29T08:16:32;22.30;99.90
38726;DHT22;24474;48.906;8.808;2022-07-29T08:18:58;22.40;99.80
38726;DHT22;24474;48.906;8.808;2022-07-29T08:21:24;22.40;99.90
38726;DHT22;24474;48.906;8.808;2022-07-29T08:23:50;22.50;99.70
38726;DHT22;24474;48.906;8.808;2022-07-29T08:26:19;22.60;99.40
38726;DHT22;24474;48.906;8.808;2022-07-29T08:28:46;22.70;98.80
38726;DHT22;24474;48.906;8.808;2022-07-29T08:31:15;22.80;99.00
38726;DHT22;24474;48.906;8.808;2022-07-29T08:33:42;22.90;98.50
38726;DHT22;24474;48.906;8.808;2022-07-29T08:36:07;23.00;98.10
38726;DHT22;24474;48.906;8.808;2022-07-29T08:38:33;23.10;96.70
38726;DHT22;24474;48.906;8.808;2022-07-29T08:41:02;23.10;97.10
38726;DHT22;24474;48.906;8.808;2022-07-29T08:43:29;23.20;95.90
38726;DHT22;24474;48.906;8.808;2022-07-29T08:45:55;23.10;95.10
38726;DHT22;24474;48.906;8.808;2022-07-29T08:48:22;23.20;95.20
38726;DHT22;24474;48.906;8.808;2022-07-29T08:50:54;23.20;95.40
38726;DHT22;24474;48.906;8.808;2022-07-29T08:53:21;23.30;95.40
38726;DHT22;24474;48.906;8.808;2022-07-29T08:55:48;23.40;95.00
38726;DHT22;24474;48.906;8.808;2022-07-29T08:58:16;23.40;94.90
38726;DHT22;24474;48.906;8.808;2022-07-29T09:00:45;23.50;94.70
38726;DHT22;24474;48.906;8.808;2022-07-29T09:03:16;23.50;95.00
38726;DHT22;24474;48.906;8.808;2022-07-29T09:05:45;23.50;94.70
38726;DHT22;24474;48.906;8.808;2022-07-29T09:08:12;23.60;94.40
38726;DHT22;24474;48.906;8.808;2022-07-29T09:10:38;23.60;94.50
38726;DHT22;24474;48.906;8.808;2022-07-29T09:13:04;23.60;94.70
38726;DHT22;24474;48.906;8.808;2022-07-29T09:15:30;23.70;93.80
38726;DHT22;24474;48.906;8.808;2022-07-29T09:17:59;23.80;94.50
38726;DHT22;24474;48.906;8.808;2022-07-29T09:20:26;23.90;93.80
38726;DHT22;24474;48.906;8.808;2022-07-29T09:23:12;24.10;94.00
38726;DHT22;24474;48.906;8.808;2022-07-29T09:25:39;24.20;93.20
38726;DHT22;24474;48.906;8.808;2022-07-29T09:30:52;24.40;92.50
38726;DHT22;24474;48.906;8.808;2022-07-29T09:33:22;24.50;92.40
38726;DHT22;24474;48.906;8.808;2022-07-29T09:36:08;24.40;92.30
38726;DHT22;24474;48.906;8.808;2022-07-29T09:38:34;24.40;92.20
38726;DHT22;24474;48.906;8.808;2022-07-29T09:41:03;24.40;92.40
38726;DHT22;24474;48.906;8.808;2022-07-29T09:43:30;24.40;92.20
38726;DHT22;24474;48.906;8.808;2022-07-29T09:45:56;24.40;91.40
38726;DHT22;24474;48.906;8.808;2022-07-29T09:48:34;24.40;91.70
38726;DHT22;24474;48.906;8.808;2022-07-29T09:51:00;24.40;91.60
38726;DHT22;24474;48.906;8.808;2022-07-29T09:53:34;24.50;91.20
38726;DHT22;24474;48.906;8.808;2022-07-29T09:56:00;24.50;91.30
38726;DHT22;24474;48.906;8.808;2022-07-29T09:58:26;24.50;91.30
38726;DHT22;24474;48.906;8.808;2022-07-29T10:00:54;24.50;91.80
38726;DHT22;24474;48.906;8.808;2022-07-29T10:03:21;24.60;91.00
38726;DHT22;24474;48.906;8.808;2022-07-29T10:06:04;24.70;91.10
38726;DHT22;24474;48.906;8.808;2022-07-29T10:08:29;24.90;91.00
38726;DHT22;24474;48.906;8.808;2022-07-29T10:11:12;24.90;91.00
38726;DHT22;24474;48.906;8.808;2022-07-29T10:13:38;25.00;89.50
38726;DHT22;24474;48.906;8.808;2022-07-29T10:16:06;25.00;90.00
38726;DHT22;24474;48.906;8.808;2022-07-29T10:18:32;25.10;89.40
38726;DHT22;24474;48.906;8.808;2022-07-29T10:20:58;25.10;88.30
38726;DHT22;24474;48.906;8.808;2022-07-29T10:23:30;25.10;89.30
38726;DHT22;24474;48.906;8.808;2022-07-29T10:25:56;25.10;88.20
38726;DHT22;24474;48.906;8.808;2022-07-29T10:28:21;25.00;89.30
38726;DHT22;24474;48.906;8.808;2022-07-29T10:30:49;25.00;88.20
38726;DHT22;24474;48.906;8.808;2022-07-29T10:44:08;25.10;87.60
38726;DHT22;24474;48.906;8.808;2022-07-29T10:46:36;25.10;87.30
38726;DHT22;24474;48.906;8.808;2022-07-29T10:49:16;25.20;86.80
38726;DHT22;24474;48.906;8.808;2022-07-29T10:54:48;25.30;86.70
38726;DHT22;24474;48.906;8.808;2022-07-29T10:59:43;25.30;86.00
38726;DHT22;24474;48.906;8.808;2022-07-29T11:05:03;25.30;86.80
38726;DHT22;24474;48.906;8.808;2022-07-29T11:07:29;25.30;86.30
38726;DHT22;24474;48.906;8.808;2022-07-29T11:15:15;25.50;87.20
38726;DHT22;24474;48.906;8.808;2022-07-29T11:20:45;25.50;85.20
38726;DHT22;24474;48.906;8.808;2022-07-29T11:23:27;25.60;86.00
38726;DHT22;24474;48.906;8.808;2022-07-29T11:31:19;25.80;83.80
38726;DHT22;24474;48.906;8.808;2022-07-29T11:33:56;25.90;85.20
38726;DHT22;24474;48.906;8.808;2022-07-29T11:36:22;26.10;83.90
38726;DHT22;24474;48.906;8.808;2022-07-29T11:38:47;26.20;83.40
38726;DHT22;24474;48.906;8.808;2022-07-29T11:41:20;26.30;82.30
38726;DHT22;24474;48.906;8.808;2022-07-29T11:43:53;26.40;82.70
38726;DHT22;24474;48.906;8.808;2022-07-29T11:49:21;26.50;83.50
38726;DHT22;24474;48.906;8.808;2022-07-29T11:51:54;26.60;81.60
38726;DHT22;24474;48.906;8.808;2022-07-29T11:54:31;26.70;82.70
38726;DHT22;24474;48.906;8.808;2022-07-29T11:56:58;26.70;82.50
38726;DHT22;24474;48.906;8.808;2022-07-29T11:59:25;26.70;83.10
38726;DHT22;24474;48.906;8.808;2022-07-29T12:01:58;26.80;83.60
38726;DHT22;24474;48.906;8.808;2022-07-29T12:04:25;26.80;82.10
38726;DHT22;24474;48.906;8.808;2022-07-29T12:06:53;26.70;81.80
38726;DHT22;24474;48.906;8.808;2022-07-29T12:09:20;26.70;82.00
38726;DHT22;24474;48.906;8.808;2022-07-29T12:11:47;26.70;83.50
38726;DHT22;24474;48.906;8.808;2022-07-29T12:14:29;26.70;83.00
38726;DHT22;24474;48.906;8.808;2022-07-29T12:16:56;26.70;82.00
38726;DHT22;24474;48.906;8.808;2022-07-29T12:19:22;26.70;82.30
38726;DHT22;24474;48.906;8.808;2022-07-29T12:24:16;26.60;81.00
38726;DHT22;24474;48.906;8.808;2022-07-29T12:26:59;26.50;81.00
38726;DHT22;24474;48.906;8.808;2022-07-29T12:29:26;26.50;80.80
38726;DHT22;24474;48.906;8.808;2022-07-29T12:31:55;26.40;80.40
38726;DHT22;24474;48.906;8.808;2022-07-29T12:34:23;26.40;80.00
38726;DHT22;24474;48.906;8.808;2022-07-29T12:36:52;26.40;79.50
38726;DHT22;24474;48.906;8.808;2022-07-29T12:39:18;26.40;79.60
38726;DHT22;24474;48.906;8.808;2022-07-29T12:41:44;26.40;80.30
38726;DHT22;24474;48.906;8.808;2022-07-29T12:44:11;26.40;80.20
38726;DHT22;24474;48.906;8.808;2022-07-29T12:46:36;26.40;80.20
38726;DHT22;24474;48.906;8.808;2022-07-29T12:49:03;26.40;79.20
38726;DHT22;24474;48.906;8.808;2022-07-29T12:54:14;26.50;79.10
38726;DHT22;24474;48.906;8.808;2022-07-29T12:56:43;26.50;78.20
38726;DHT22;24474;48.906;8.808;2022-07-29T12:59:21;26.50;79.00
38726;DHT22;24474;48.906;8.808;2022-07-29T13:01:49;26.60;79.00
38726;DHT22;24474;48.906;8.808;2022-07-29T13:04:27;26.60;77.80
38726;DHT22;24474;48.906;8.808;2022-07-29T13:07:00;26.60;77.10
38726;DHT22;24474;48.906;8.808;2022-07-29T13:09:40;26.50;76.90
38726;DHT22;24474;48.906;8.808;2022-07-29T13:12:10;26.50;76.40
38726;DHT22;24474;48.906;8.808;2022-07-29T13:14:45;26.40;76.40
38726;DHT22;24474;48.906;8.808;2022-07-29T13:17:16;26.40;76.90
38726;DHT22;24474;48.906;8.808;2022-07-29T13:22:14;26.40;76.20
38726;DHT22;24474;48.906;8.808;2022-07-29T13:24:57;26.40;76.50
38726;DHT22;24474;48.906;8.808;2022-07-29T13:27:25;26.40;76.50
38726;DHT22;24474;48.906;8.808;2022-07-29T13:29:51;26.40;77.80
38726;DHT22;24474;48.906;8.808;2022-07-29T13:32:18;26.50;77.60
38726;DHT22;24474;48.906;8.808;2022-07-29T13:34:44;26.60;78.20
38726;DHT22;24474;48.906;8.808;2022-07-29T13:37:09;26.60;78.50
38726;DHT22;24474;48.906;8.808;2022-07-29T13:39:35;26.60;78.60
38726;DHT22;24474;48.906;8.808;2022-07-29T13:42:03;26.60;78.80
38726;DHT22;24474;48.906;8.808;2022-07-29T13:44:28;26.60;79.40
38726;DHT22;24474;48.906;8.808;2022-07-29T13:46:54;26.70;78.20
38726;DHT22;24474;48.906;8.808;2022-07-29T13:49:20;26.80;78.00
38726;DHT22;24474;48.906;8.808;2022-07-29T13:51:45;26.90;78.40
38726;DHT22;24474;48.906;8.808;2022-07-29T13:54:11;27.00;76.40
38726;DHT22;24474;48.906;8.808;2022-07-29T13:56:36;27.00;76.30
38726;DHT22;24474;48.906;8.808;2022-07-29T13:59:02;27.00;77.10
38726;DHT22;24474;48.906;8.808;2022-07-29T14:01:27;27.00;76.50
38726;DHT22;24474;48.906;8.808;2022-07-29T14:03:55;27.10;77.50
38726;DHT22;24474;48.906;8.808;2022-07-29T14:06:21;27.20;75.60
38726;DHT22;24474;48.906;8.808;2022-07-29T14:08:46;27.10;75.40
38726;DHT22;24474;48.906;8.808;2022-07-29T14:11:12;27.10;74.70
38726;DHT22;24474;48.906;8.808;2022-07-29T14:13:38;27.10;76.20
38726;DHT22;24474;48.906;8.808;2022-07-29T14:16:03;27.10;73.30
38726;DHT22;24474;48.906;8.808;2022-07-29T14:18:29;27.00;73.80
38726;DHT22;24474;48.906;8.808;2022-07-29T14:20:55;27.00;74.00
38726;DHT22;24474;48.906;8.808;2022-07-29T14:23:20;27.10;72.90
38726;DHT22;24474;48.906;8.808;2022-07-29T14:25:46;27.00;72.80
38726;DHT22;24474;48.906;8.808;2022-07-29T14:28:12;27.00;72.60
38726;DHT22;24474;48.906;8.808;2022-07-29T14:30:38;27.00;73.60
38726;DHT22;24474;48.906;8.808;2022-07-29T14:33:03;27.00;73.00
38726;DHT22;24474;48.906;8.808;2022-07-29T14:35:29;27.00;71.70
38726;DHT22;24474;48.906;8.808;2022-07-29T14:37:55;26.90;71.70
38726;DHT22;24474;48.906;8.808;2022-07-29T14:40:20;26.90;73.00
38726;DHT22;24474;48.906;8.808;2022-07-29T14:42:46;26.90;73.60
38726;DHT22;24474;48.906;8.808;2022-07-29T14:45:12;27.00;72.60
38726;DHT22;24474;48.906;8.808;2022-07-29T14:47:38;26.90;72.50
38726;DHT22;24474;48.906;8.808;2022-07-29T14:50:05;26.90;72.50
38726;DHT22;24474;48.906;8.808;2022-07-29T14:52:31;26.90;72.60
38726;DHT22;24474;48.906;8.808;2022-07-29T14:54:57;26.90;72.60
38726;DHT22;24474;48.906;8.808;2022-07-29T14:57:25;27.00;72.60
38726;DHT22;24474;48.906;8.808;2022-07-29T14:59:51;27.00;72.40
38726;DHT22;24474;48.906;8.808;2022-07-29T15:02:17;27.00;72.30
38726;DHT22;24474;48.906;8.808;2022-07-29T15:04:43;27.00;72.50
38726;DHT22;24474;48.906;8.808;2022-07-29T15:07:09;26.90;72.40
38726;DHT22;24474;48.906;8.808;2022-07-29T15:09:37;26.90;72.40
38726;DHT22;24474;48.906;8.808;2022-07-29T15:12:03;26.80;72.50
38726;DHT22;24474;48.906;8.808;2022-07-29T15:14:30;26.80;72.70
38726;DHT22;24474;48.906;8.808;2022-07-29T15:16:57;26.70;72.40
38726;DHT22;24474;48.906;8.808;2022-07-29T15:19:22;26.70;72.90
38726;DHT22;24474;48.906;8.808;2022-07-29T15:21:48;26.80;73.20
38726;DHT22;24474;48.906;8.808;2022-07-29T15:24:18;26.80;73.00
38726;DHT22;24474;48.906;8.808;2022-07-29T15:26:44;26.70;72.80
38726;DHT22;24474;48.906;8.808;2022-07-29T15:29:17;26.60;74.20
38726;DHT22;24474;48.906;8.808;2022-07-29T15:31:43;26.70;73.50
38726;DHT22;24474;48.906;8.808;2022-07-29T15:34:09;26.70;73.30
38726;DHT22;24474;48.906;8.808;2022-07-29T15:36:35;26.80;73.80
38726;DHT22;24474;48.906;8.808;2022-07-29T15:39:00;26.80;72.80
38726;DHT22;24474;48.906;8.808;2022-07-29T15:41:26;26.70;73.20
38726;DHT22;24474;48.906;8.808;2022-07-29T15:43:52;26.70;72.40
38726;DHT22;24474;48.906;8.808;2022-07-29T15:46:19;26.80;72.10
38726;DHT22;24474;48.906;8.808;2022-07-29T15:49:06;26.70;71.80
38726;DHT22;24474;48.906;8.808;2022-07-29T15:51:33;26.70;71.90
38726;DHT22;24474;48.906;8.808;2022-07-29T15:54:04;26.70;71.80
38726;DHT22;24474;48.906;8.808;2022-07-29T15:56:30;26.70;71.70
38726;DHT22;24474;48.906;8.808;2022-07-29T15:58:56;26.70;71.60
38726;DHT22;24474;48.906;8.808;2022-07-29T16:01:24;26.70;72.20
38726;DHT22;24474;48.906;8.808;2022-07-29T16:03:50;26.70;71.30
38726;DHT22;24474;48.906;8.808;2022-07-29T16:06:17;26.70;72.40
38726;DHT22;24474;48.906;8.808;2022-07-29T16:08:43;26.80;71.30
38726;DHT22;24474;48.906;8.808;2022-07-29T16:11:09;26.80;71.00
38726;DHT22;24474;48.906;8.808;2022-07-29T16:13:36;26.80;71.10
38726;DHT22;24474;48.906;8.808;2022-07-29T16:16:03;26.80;71.00
38726;DHT22;24474;48.906;8.808;2022-07-29T16:18:30;26.80;70.60
38726;DHT22;24474;48.906;8.808;2022-07-29T16:20:55;26.90;70.30
38726;DHT22;24474;48.906;8.808;2022-07-29T16:23:21;27.00;69.80
38726;DHT22;24474;48.906;8.808;2022-07-29T16:25:49;27.10;69.60
38726;DHT22;24474;48.906;8.808;2022-07-29T16:28:14;27.10;70.10
38726;DHT22;24474;48.906;8.808;2022-07-29T16:30:41;27.10;69.10
38726;DHT22;24474;48.906;8.808;2022-07-29T16:33:08;27.10;69.50